Beaver Cove, Maine
Current Conditions -  °F | °C
As of 2:53 PM on Friday 21 Nov 2014 (Local Time) from KMLT Reporting Station
Scattered Clouds Scattered Clouds  
Wind Chill: 11°   Ceiling: Unl
Heat Index: 25°   Visibility: 10mi
Dew Point: 10°   Wind: 21mph
Humidity: 53%   Direction: 300°WNW
Pressure: 30.01"   Gusts: 32mph
Location:  45.7313°N, 69.33°W
Report Text: KMLT 211953Z AUTO 30018G28KT 10SM SCT040 SCT047 M04/M12 A3001 RMK AO2 PK WND 30028/1952 SLP172 T10391122
Loading
Personal Weather Stations






























Interactive Weather Map New forecast layout! Learn more

10-Day Weather Forecast

Advertisements
Track Severe Weather on mobile